Time;durP1;ratioP1;P1;durP2;ratioP2;P2;SDS_P1;SDS_P2;PMS_P1;PMS_P2;Temp;Humidity;BMP_temperature;BMP_pressure;BME280_temperature;BME280_humidity;BME280_pressure;Samples;Min_cycle;Max_cycle;Signal;HPM_P1;HPM_P2
2023/09/09 00:00:36;;;;;;;10.40;4.00;;;;;;;11.35;76.92;99275.85;105473;1263;61168;-22
2023/09/09 00:03:04;;;;;;;7.20;3.10;;;;;;;11.17;78.01;99272.02;105492;1261;61113;-22
2023/09/09 00:05:33;;;;;;;7.70;2.60;;;;;;;11.61;78.05;99268.33;105228;1263;73261;-23
2023/09/09 00:08:01;;;;;;;7.10;3.50;;;;;;;12.15;76.37;99269.10;105345;1263;74461;-23
2023/09/09 00:10:29;;;;;;;7.20;3.40;;;;;;;12.20;75.66;99272.34;105508;1262;72714;-23
2023/09/09 00:12:57;;;;;;;8.20;4.30;;;;;;;12.02;75.95;99267.21;105493;1262;61091;-23
2023/09/09 00:15:25;;;;;;;9.50;4.70;;;;;;;11.77;77.34;99265.81;105469;1262;61177;-23
2023/09/09 00:17:53;;;;;;;6.40;4.20;;;;;;;11.55;77.83;99266.18;105567;1262;73094;-23
2023/09/09 00:20:30;;;;;;;9.60;4.50;;;;;;;11.36;78.48;99268.98;105276;1261;74482;-22
2023/09/09 00:22:58;;;;;;;8.30;3.40;;;;;;;11.21;79.44;99263.55;105257;1258;72873;-22
2023/09/09 00:25:26;;;;;;;8.60;3.70;;;;;;;11.72;79.75;99267.73;105221;1271;61272;-22
2023/09/09 00:27:54;;;;;;;10.40;4.60;;;;;;;12.30;77.95;99264.02;105341;1262;61130;-23
2023/09/09 00:30:22;;;;;;;7.90;4.30;;;;;;;12.37;77.06;99261.88;105418;1264;71806;-23
2023/09/09 00:32:50;;;;;;;8.60;4.30;;;;;;;12.20;77.22;99260.69;105222;1258;74472;-23
2023/09/09 00:35:18;;;;;;;7.40;5.00;;;;;;;11.98;77.48;99258.51;105284;1261;71468;-23
2023/09/09 00:37:46;;;;;;;8.90;4.30;;;;;;;11.73;78.44;99257.77;105240;1263;61190;-23
2023/09/09 00:40:14;;;;;;;8.20;4.70;;;;;;;11.50;78.88;99259.64;105492;1257;61100;-22
2023/09/09 00:42:42;;;;;;;6.20;3.20;;;;;;;11.31;79.61;99259.27;105206;1264;73098;-23
2023/09/09 00:45:10;;;;;;;7.70;3.40;;;;;;;11.70;79.69;99256.42;105406;1263;74571;-23
2023/09/09 00:47:37;;;;;;;9.40;3.90;;;;;;;12.18;78.13;99255.65;105340;1264;72769;-22
2023/09/09 00:50:10;;;;;;;7.70;4.50;;;;;;;12.20;77.30;99255.08;105136;1260;61124;-23
2023/09/09 00:52:38;;;;;;;7.60;4.40;;;;;;;12.01;77.32;99255.45;105159;1257;61069;-23
2023/09/09 00:55:07;;;;;;;9.00;5.30;;;;;;;11.78;77.65;99254.25;105218;1261;73076;-22
2023/09/09 00:57:34;;;;;;;11.40;5.30;;;;;;;11.51;78.50;99255.55;105271;1257;74449;-22
2023/09/09 01:00:04;;;;;;;9.90;4.50;;;;;;;11.28;78.80;99257.05;105305;1261;72783;-22
2023/09/09 01:02:31;;;;;;;7.30;3.10;;;;;;;11.09;79.92;99256.67;105201;1258;61808;-22
2023/09/09 01:05:00;;;;;;;7.30;3.90;;;;;;;11.48;80.05;99255.96;105372;1258;61131;-23
2023/09/09 01:07:27;;;;;;;8.50;4.40;;;;;;;11.95;78.52;99254.00;105490;1257;71047;-23
2023/09/09 01:09:57;;;;;;;7.90;4.60;;;;;;;11.97;77.70;99252.61;105253;1263;74419;-23
2023/09/09 01:12:27;;;;;;;9.60;5.20;;;;;;;11.79;77.57;99248.57;105212;1261;72676;-23
2023/09/09 01:14:55;;;;;;;8.00;4.90;;;;;;;11.52;77.98;99250.24;105305;1258;61238;-22
2023/09/09 01:17:23;;;;;;;9.90;5.10;;;;;;;11.28;78.83;99252.41;105215;1261;61170;-23
2023/09/09 01:19:51;;;;;;;7.40;5.00;;;;;;;11.03;79.46;99253.48;105602;1257;73073;-22
2023/09/09 01:22:19;;;;;;;7.50;3.10;;;;;;;10.84;80.51;99252.38;105292;1264;73226;-23
2023/09/09 01:24:46;;;;;;;11.00;3.80;;;;;;;11.27;80.88;99246.70;105256;1258;72468;-23
2023/09/09 01:27:14;;;;;;;11.50;4.90;;;;;;;11.79;79.16;99244.07;105550;1263;61212;-23
2023/09/09 01:29:42;;;;;;;9.10;4.60;;;;;;;11.86;78.24;99242.96;105420;1257;61036;-22
2023/09/09 01:32:10;;;;;;;13.70;5.00;;;;;;;11.70;78.30;99242.73;105483;1258;73042;-23
2023/09/09 01:34:38;;;;;;;12.90;5.00;;;;;;;11.47;78.67;99238.52;105437;1258;73351;-23
2023/09/09 01:37:05;;;;;;;7.80;5.10;;;;;;;11.22;79.46;99243.29;105415;1263;72679;-23
2023/09/09 01:39:33;;;;;;;10.10;5.60;;;;;;;11.00;79.88;99242.32;105451;1258;61176;-23
2023/09/09 01:42:02;;;;;;;8.20;3.40;;;;;;;10.79;81.23;99244.77;105433;1263;61181;-23
2023/09/09 01:45:52;;;;;;;13.50;5.00;;;;;;;11.51;80.24;99240.05;102623;1293;600618;-21
2023/09/09 01:48:21;;;;;;;11.20;5.10;;;;;;;11.69;79.14;99244.20;105093;1267;61183;-23
2023/09/09 01:50:49;;;;;;;11.10;5.20;;;;;;;11.56;79.12;99241.92;105054;1267;61095;-21
2023/09/09 01:53:17;;;;;;;8.50;5.30;;;;;;;11.36;79.55;99245.32;104816;1267;71513;-21
2023/09/09 01:55:45;;;;;;;13.70;5.90;;;;;;;11.12;80.20;99244.95;105012;1267;74478;-21
2023/09/09 01:58:13;;;;;;;9.80;5.70;;;;;;;10.91;80.84;99243.72;105712;1257;73209;-21
2023/09/09 02:00:40;;;;;;;8.00;3.80;;;;;;;10.72;82.22;99247.60;103704;1257;2917635;-21
2023/09/09 02:03:08;;;;;;;10.00;4.30;;;;;;;11.16;82.14;99248.15;105963;1255;61156;-21
2023/09/09 02:05:36;;;;;;;11.40;4.90;;;;;;;11.66;80.03;99247.03;105928;1254;72278;-21
2023/09/09 02:08:04;;;;;;;10.00;5.30;;;;;;;11.71;79.21;99245.04;105606;1252;74413;-21
2023/09/09 02:10:32;;;;;;;9.50;5.20;;;;;;;11.56;79.17;99242.11;105869;1254;72832;-23
2023/09/09 02:13:00;;;;;;;9.90;5.20;;;;;;;11.36;79.71;99244.61;105861;1254;61097;-21
2023/09/09 02:15:28;;;;;;;9.40;5.00;;;;;;;11.12;80.39;99246.66;105588;1257;61205;-21
2023/09/09 02:17:57;;;;;;;7.00;3.50;;;;;;;10.95;80.82;99241.47;105954;1256;71817;-23
2023/09/09 02:20:25;;;;;;;7.30;4.00;;;;;;;11.32;80.83;99239.75;106006;1257;74517;-22
2023/09/09 02:22:53;;;;;;;9.20;4.10;;;;;;;11.77;79.17;99236.95;105747;1257;72681;-22
2023/09/09 02:25:21;;;;;;;13.80;4.70;;;;;;;11.79;78.32;99232.61;105663;1253;61074;-24
2023/09/09 02:27:49;;;;;;;7.00;4.30;;;;;;;11.60;78.63;99230.20;105701;1256;61161;-24
2023/09/09 02:30:17;;;;;;;7.80;4.40;;;;;;;11.35;79.17;99229.73;105594;1259;73219;-24
2023/09/09 02:32:45;;;;;;;10.60;5.70;;;;;;;11.09;79.58;99232.86;105625;1259;73236;-23
2023/09/09 02:35:14;;;;;;;9.40;5.00;;;;;;;10.84;80.89;99238.67;105506;1254;72697;-24
2023/09/09 02:37:42;;;;;;;7.00;3.90;;;;;;;10.66;82.12;99237.35;105627;1254;61099;-24
2023/09/09 02:40:10;;;;;;;5.70;3.50;;;;;;;11.13;81.58;99238.79;105570;1258;61093;-23
2023/09/09 02:42:38;;;;;;;11.20;4.90;;;;;;;11.66;79.70;99235.34;105815;1254;73091;-23
2023/09/09 02:45:07;;;;;;;10.90;5.10;;;;;;;11.71;78.59;99237.35;105715;1254;73231;-23
2023/09/09 02:47:36;;;;;;;9.50;5.10;;;;;;;11.54;78.55;99235.53;105708;1254;72739;-23
2023/09/09 02:50:05;;;;;;;8.80;4.70;;;;;;;11.30;79.72;99241.64;105637;1259;61132;-24
2023/09/09 02:52:33;;;;;;;8.70;4.90;;;;;;;11.05;80.92;99245.30;105664;1254;61257;-23
2023/09/09 02:55:01;;;;;;;6.00;3.20;;;;;;;10.91;81.91;99246.28;105678;1254;73088;-24
2023/09/09 02:57:28;;;;;;;7.40;3.70;;;;;;;11.34;81.78;99245.33;105572;1260;74023;-23
2023/09/09 02:59:56;;;;;;;7.60;4.20;;;;;;;11.87;79.71;99245.79;105661;1257;71440;-23
2023/09/09 03:02:24;;;;;;;7.50;4.30;;;;;;;11.98;78.50;99246.84;105750;1253;61167;-23
2023/09/09 03:04:52;;;;;;;7.40;4.30;;;;;;;11.89;78.53;99247.59;105750;1254;61067;-23
2023/09/09 03:07:20;;;;;;;8.50;4.50;;;;;;;11.70;78.62;99244.80;105845;1254;71486;-23
2023/09/09 03:09:49;;;;;;;8.30;4.70;;;;;;;11.51;79.34;99243.04;105881;1254;74495;-24
2023/09/09 03:12:20;;;;;;;7.00;4.50;;;;;;;11.31;79.79;99244.53;105721;1254;71448;-23
2023/09/09 03:14:48;;;;;;;5.40;3.40;;;;;;;11.13;80.82;99244.71;105750;1257;61698;-23
2023/09/09 03:17:17;;;;;;;7.90;3.30;;;;;;;11.57;80.69;99241.14;105644;1252;61112;-23
2023/09/09 03:19:45;;;;;;;9.60;4.60;;;;;;;12.06;78.53;99244.45;105724;1254;73071;-23
2023/09/09 03:22:13;;;;;;;8.90;4.30;;;;;;;12.06;77.74;99239.94;105555;1254;73229;-23
2023/09/09 03:24:41;;;;;;;9.50;4.30;;;;;;;11.85;77.92;99242.16;105683;1254;72670;-23
2023/09/09 03:27:09;;;;;;;10.30;5.40;;;;;;;11.59;78.63;99239.59;105618;1258;61137;-23
2023/09/09 03:29:37;;;;;;;6.60;4.30;;;;;;;11.34;79.36;99238.71;105798;1254;61146;-23
2023/09/09 03:32:05;;;;;;;9.00;4.90;;;;;;;11.10;79.96;99241.13;105832;1257;71436;-23
2023/09/09 03:34:33;;;;;;;6.10;3.40;;;;;;;10.92;80.74;99239.81;105676;1262;74541;-23
2023/09/09 03:37:01;;;;;;;7.00;3.50;;;;;;;11.31;80.41;99235.64;105671;1258;72695;-23
2023/09/09 03:39:29;;;;;;;6.80;4.70;;;;;;;11.77;78.54;99235.71;105849;1254;61112;-23
2023/09/09 03:41:57;;;;;;;10.20;3.70;;;;;;;11.77;78.15;99236.95;105889;1254;61100;-23
2023/09/09 03:44:25;;;;;;;8.60;4.60;;;;;;;11.59;78.42;99234.23;105860;1254;71806;-23
2023/09/09 03:46:53;;;;;;;8.80;4.80;;;;;;;11.35;79.12;99232.30;105687;1259;74416;-23
2023/09/09 03:49:21;;;;;;;8.10;5.00;;;;;;;11.11;80.57;99235.86;105814;1254;71448;-23
2023/09/09 03:51:49;;;;;;;8.90;3.60;;;;;;;10.96;81.69;99240.05;105655;1257;61761;-23
2023/09/09 03:54:17;;;;;;;7.60;3.80;;;;;;;11.34;81.54;99243.36;105698;1260;61092;-23
2023/09/09 03:56:45;;;;;;;10.40;4.70;;;;;;;11.87;79.36;99243.23;105808;1258;73058;-23
2023/09/09 03:59:13;;;;;;;8.00;4.50;;;;;;;11.99;78.09;99239.83;105693;1254;74470;-23
2023/09/09 04:01:41;;;;;;;8.70;4.70;;;;;;;11.88;77.79;99237.42;105611;1259;72691;-23
2023/09/09 04:04:09;;;;;;;10.40;4.90;;;;;;;11.71;78.42;99234.96;105656;1254;61239;-23
2023/09/09 04:06:37;;;;;;;11.20;4.60;;;;;;;11.55;78.87;99233.20;105776;1254;61119;-23
2023/09/09 04:09:05;;;;;;;10.60;5.20;;;;;;;11.41;79.33;99239.38;105573;1259;71827;-24
2023/09/09 04:11:33;;;;;;;7.10;3.60;;;;;;;11.35;79.62;99236.19;105643;1259;74470;-24
2023/09/09 04:14:00;;;;;;;5.60;3.40;;;;;;;11.94;79.14;99231.52;105684;1260;72733;-23
2023/09/09 04:16:28;;;;;;;8.20;3.80;;;;;;;12.61;76.80;99230.38;105585;1253;61170;-26
2023/09/09 04:18:56;;;;;;;7.70;4.20;;;;;;;12.78;75.31;99236.58;105637;1257;61051;-24
2023/09/09 04:21:26;;;;;;;5.80;3.80;;;;;;;12.71;75.19;99237.00;105790;1252;71880;-23
2023/09/09 04:23:54;;;;;;;9.30;4.30;;;;;;;12.60;75.52;99234.80;105665;1259;74471;-23
2023/09/09 04:26:21;;;;;;;6.10;4.10;;;;;;;12.49;75.94;99235.98;105545;1254;72684;-23
2023/09/09 04:28:49;;;;;;;8.40;4.00;;;;;;;12.33;76.58;99235.07;105526;1252;61743;-23
2023/09/09 04:31:17;;;;;;;5.80;3.00;;;;;;;12.22;77.57;99230.08;105669;1254;62511;-23
2023/09/09 04:33:46;;;;;;;6.10;3.60;;;;;;;12.66;77.41;99233.11;105768;1256;71791;-23
2023/09/09 04:36:14;;;;;;;5.60;3.90;;;;;;;13.19;75.16;99228.81;105576;1257;74525;-23
2023/09/09 04:38:42;;;;;;;5.90;3.60;;;;;;;13.28;74.79;99229.57;105788;1258;71715;-23
2023/09/09 04:41:10;;;;;;;7.60;4.40;;;;;;;13.19;75.07;99231.96;105713;1255;61148;-23
2023/09/09 04:43:38;;;;;;;8.30;4.60;;;;;;;13.10;75.51;99232.04;105576;1254;61122;-24
2023/09/09 04:46:06;;;;;;;8.20;4.70;;;;;;;13.01;75.90;99232.50;105570;1260;71927;-23
2023/09/09 04:48:35;;;;;;;8.40;4.40;;;;;;;12.89;76.59;99240.69;105852;1257;73230;-23
2023/09/09 04:51:03;;;;;;;3.90;2.80;;;;;;;12.75;76.97;99240.15;105665;1260;72738;-23
2023/09/09 04:53:31;;;;;;;6.90;3.80;;;;;;;13.12;76.46;99238.78;105521;1257;61061;-23
2023/09/09 04:56:00;;;;;;;7.90;3.40;;;;;;;13.56;74.54;99234.25;105592;1254;61186;-23
2023/09/09 04:58:30;;;;;;;7.90;3.60;;;;;;;13.58;74.09;99234.11;105639;1259;71833;-23
2023/09/09 05:00:59;;;;;;;7.80;4.10;;;;;;;13.45;74.50;99238.39;105586;1254;74419;-23
2023/09/09 05:03:28;;;;;;;6.90;4.30;;;;;;;13.28;75.04;99238.15;105621;1260;72698;-23
2023/09/09 05:05:56;;;;;;;8.10;4.60;;;;;;;13.15;75.64;99241.54;105686;1254;62749;-23
2023/09/09 05:08:23;;;;;;;7.40;4.30;;;;;;;13.13;76.35;99243.25;105678;1259;61108;-23
2023/09/09 05:10:51;;;;;;;8.10;3.40;;;;;;;13.30;76.28;99249.45;105726;1257;73096;-23
2023/09/09 05:13:20;;;;;;;5.80;3.50;;;;;;;14.13;75.77;99254.19;105697;1257;74513;-23
2023/09/09 05:15:48;;;;;;;7.90;3.60;;;;;;;15.07;72.40;99252.50;105874;1257;72683;-23
2023/09/09 05:18:16;;;;;;;6.10;4.00;;;;;;;15.48;70.09;99249.04;105825;1254;61148;-23
2023/09/09 05:20:44;;;;;;;6.90;4.20;;;;;;;15.59;70.62;99252.90;105807;1257;61116;-23
2023/09/09 05:23:12;;;;;;;6.90;4.10;;;;;;;15.57;70.91;99254.26;105594;1260;71845;-23
2023/09/09 05:25:40;;;;;;;6.60;4.20;;;;;;;15.59;71.32;99254.15;105610;1261;74412;-23
2023/09/09 05:28:09;;;;;;;6.40;4.40;;;;;;;15.60;71.95;99257.66;105670;1258;72706;-23
2023/09/09 05:30:40;;;;;;;11.30;4.60;;;;;;;15.69;70.56;99258.55;105557;1258;61189;-23
2023/09/09 05:33:09;;;;;;;8.70;4.70;;;;;;;15.57;71.04;99254.84;105687;1254;61164;-23
2023/09/09 05:35:37;;;;;;;13.30;5.40;;;;;;;15.45;71.83;99257.61;105648;1257;73089;-23
2023/09/09 05:38:04;;;;;;;6.30;3.30;;;;;;;15.43;73.45;99258.88;105456;1254;75367;-23
2023/09/09 05:40:32;;;;;;;6.40;3.80;;;;;;;16.06;72.43;99254.16;105828;1257;72714;-23
2023/09/09 05:43:00;;;;;;;8.10;4.00;;;;;;;16.66;69.55;99257.52;105797;1254;61057;-23
2023/09/09 05:45:28;;;;;;;6.90;4.40;;;;;;;16.89;67.66;99263.93;105672;1259;61266;-23
2023/09/09 05:47:56;;;;;;;6.60;4.30;;;;;;;16.93;67.54;99269.02;105632;1260;71857;-23
2023/09/09 05:50:24;;;;;;;8.30;4.10;;;;;;;16.82;68.43;99273.65;105607;1257;73207;-24
2023/09/09 05:52:52;;;;;;;8.30;4.30;;;;;;;16.64;68.22;99270.44;105558;1254;71636;-23
2023/09/09 05:55:25;;;;;;;5.50;4.10;;;;;;;16.62;67.85;99271.67;105550;1259;61423;-23
2023/09/09 05:57:53;;;;;;;8.60;4.40;;;;;;;16.54;67.98;99270.93;105640;1254;61197;-23
2023/09/09 06:00:21;;;;;;;8.20;4.70;;;;;;;16.46;68.72;99268.33;105616;1257;71655;-23
2023/09/09 06:02:49;;;;;;;6.70;4.30;;;;;;;16.47;69.26;99270.38;105878;1259;74511;-24
2023/09/09 06:05:16;;;;;;;9.90;4.90;;;;;;;16.44;68.64;99272.59;105673;1254;71728;-23
2023/09/09 06:07:45;;;;;;;9.10;4.50;;;;;;;16.48;68.66;99275.89;105844;1258;61163;-23
2023/09/09 06:10:13;;;;;;;7.20;4.30;;;;;;;16.52;68.52;99272.67;105747;1254;61137;-23
2023/09/09 06:12:41;;;;;;;6.40;4.50;;;;;;;16.60;68.50;99273.84;105820;1260;73867;-23
2023/09/09 06:15:10;;;;;;;7.30;3.40;;;;;;;16.69;68.22;99276.86;105908;1260;74385;-24
2023/09/09 06:17:39;;;;;;;7.30;3.90;;;;;;;17.26;66.10;99273.10;105748;1254;72668;-22
2023/09/09 06:20:09;;;;;;;8.10;3.40;;;;;;;17.78;63.19;99277.23;105832;1253;61077;-22
2023/09/09 06:22:37;;;;;;;20.80;9.30;;;;;;;17.89;62.67;99278.55;105554;1261;61515;-22
2023/09/09 06:25:06;;;;;;;10.10;5.30;;;;;;;17.29;63.82;99283.47;105651;1257;73884;-23
2023/09/09 06:27:34;;;;;;;8.50;4.60;;;;;;;17.27;63.74;99282.10;105714;1259;73484;-23
2023/09/09 06:30:03;;;;;;;8.10;4.20;;;;;;;17.24;64.66;99288.30;105575;1260;71432;-23
2023/09/09 06:32:31;;;;;;;9.50;4.20;;;;;;;17.37;63.92;99288.97;105364;1260;61122;-23
2023/09/09 06:35:00;;;;;;;7.80;4.10;;;;;;;17.20;64.59;99293.58;105558;1257;61026;-22
2023/09/09 06:37:27;;;;;;;9.40;5.00;;;;;;;17.05;65.84;99293.85;105461;1259;72690;-22
2023/09/09 06:39:55;;;;;;;8.90;5.00;;;;;;;17.16;65.22;99294.90;105676;1260;74396;-23
2023/09/09 06:42:23;;;;;;;15.90;7.30;;;;;;;17.10;64.69;99300.64;105678;1260;72784;-23
2023/09/09 06:44:52;;;;;;;9.40;6.00;;;;;;;17.12;64.32;99294.10;105788;1257;61161;-23
2023/09/09 06:47:19;;;;;;;9.60;5.70;;;;;;;17.19;64.06;99301.45;105632;1257;61049;-23
2023/09/09 06:49:48;;;;;;;19.60;5.60;;;;;;;17.29;63.74;99296.79;105706;1254;73846;-22
2023/09/09 06:52:16;;;;;;;12.90;5.90;;;;;;;17.39;64.49;99293.91;105734;1254;73193;-23
2023/09/09 06:54:44;;;;;;;10.50;4.40;;;;;;;17.50;63.78;99291.64;105747;1257;73229;-22
2023/09/09 06:57:12;;;;;;;12.40;5.40;;;;;;;17.63;63.71;99292.23;105567;1255;62724;-23
2023/09/09 06:59:40;;;;;;;7.20;4.30;;;;;;;17.66;62.64;99289.92;105532;1255;61084;-23
2023/09/09 07:02:09;;;;;;;7.80;4.70;;;;;;;17.77;62.76;99287.72;105565;1257;73907;-23
2023/09/09 07:04:37;;;;;;;10.90;5.00;;;;;;;17.90;62.10;99284.38;105493;1254;73245;-23
2023/09/09 07:07:04;;;;;;;12.70;4.70;;;;;;;18.06;62.39;99291.90;105481;1257;72715;-23
2023/09/09 07:09:41;;;;;;;10.20;4.40;;;;;;;18.06;61.39;99291.80;105611;1257;62663;-23
2023/09/09 07:12:09;;;;;;;13.30;4.90;;;;;;;18.24;62.05;99297.60;105844;1256;61535;-23
2023/09/09 07:14:37;;;;;;;9.10;4.20;;;;;;;18.39;61.69;99301.71;105736;1259;72595;-23
2023/09/09 07:17:08;;;;;;;6.50;4.70;;;;;;;18.25;60.49;99302.81;105786;1258;74396;-23
2023/09/09 07:19:36;;;;;;;10.00;4.60;;;;;;;18.01;61.23;99310.11;105741;1257;72745;-23
2023/09/09 07:22:05;;;;;;;8.10;4.10;;;;;;;17.83;61.60;99312.23;105500;1257;61061;-23
2023/09/09 07:24:33;;;;;;;14.70;7.90;;;;;;;18.06;61.27;99314.36;105544;1254;61122;-23
2023/09/09 07:27:03;;;;;;;10.20;5.20;;;;;;;18.38;61.16;99316.35;105465;1254;73933;-26
2023/09/09 07:29:31;;;;;;;7.50;4.70;;;;;;;18.53;60.88;99317.82;105647;1260;74463;-23
2023/09/09 07:31:59;;;;;;;12.40;4.60;;;;;;;18.68;60.62;99319.14;105498;1258;72706;-23
2023/09/09 07:34:27;;;;;;;10.20;4.60;;;;;;;18.85;59.77;99321.35;105663;1260;61176;-23
2023/09/09 07:36:54;;;;;;;7.50;4.50;;;;;;;18.59;59.54;99323.16;105499;1254;61087;-23
2023/09/09 07:39:26;;;;;;;23.20;15.90;;;;;;;18.65;59.53;99321.33;105532;1260;73912;-23
2023/09/09 07:41:54;;;;;;;18.70;7.50;;;;;;;18.92;59.79;99324.62;105524;1259;74395;-23
2023/09/09 07:44:22;;;;;;;18.30;10.60;;;;;;;19.10;58.26;99325.84;105507;1259;72691;-23
2023/09/09 07:46:49;;;;;;;11.70;5.30;;;;;;;19.06;58.07;99323.20;105618;1257;61163;-23
2023/09/09 07:49:21;;;;;;;10.40;4.50;;;;;;;19.10;58.52;99322.42;105470;1255;61097;-21
2023/09/09 07:51:48;;;;;;;13.10;4.60;;;;;;;19.46;57.62;99321.37;105549;1260;72683;-22
2023/09/09 07:54:16;;;;;;;13.30;5.00;;;;;;;19.43;56.41;99325.40;105700;1255;74920;-22
2023/09/09 07:56:46;;;;;;;14.50;6.90;;;;;;;19.36;56.15;99328.99;105814;1255;72691;-22
2023/09/09 07:59:13;;;;;;;13.50;5.40;;;;;;;19.10;56.53;99333.84;105820;1260;61100;-22
2023/09/09 08:01:42;;;;;;;11.30;4.80;;;;;;;19.45;56.77;99329.77;105706;1252;61155;-22
2023/09/09 08:04:10;;;;;;;10.60;5.10;;;;;;;19.52;55.99;99329.64;105512;1259;73893;-22
2023/09/09 08:06:38;;;;;;;19.60;7.10;;;;;;;19.06;57.03;99335.34;105648;1259;74438;-22
2023/09/09 08:09:06;;;;;;;20.70;10.80;;;;;;;19.07;57.01;99334.67;105664;1257;71471;-22
2023/09/09 08:11:33;;;;;;;16.80;8.60;;;;;;;19.03;56.94;99336.75;105723;1254;60981;-22
2023/09/09 08:14:01;;;;;;;15.90;5.70;;;;;;;19.14;56.39;99335.20;105792;1259;61186;-22
2023/09/09 08:16:30;;;;;;;13.70;5.20;;;;;;;19.38;56.03;99335.81;105850;1254;73925;-22
2023/09/09 08:19:00;;;;;;;27.50;16.40;;;;;;;19.34;56.31;99333.64;105838;1261;74439;-22
2023/09/09 08:21:28;;;;;;;9.60;4.40;;;;;;;19.83;55.37;99328.95;105665;1257;71463;-22
2023/09/09 08:23:59;;;;;;;7.10;3.50;;;;;;;20.12;53.99;99330.05;105633;1260;61151;-22
2023/09/09 08:26:28;;;;;;;11.30;6.10;;;;;;;19.88;54.38;99333.89;105401;1257;61119;-22
2023/09/09 08:28:56;;;;;;;8.30;4.30;;;;;;;19.84;54.68;99332.50;105265;1257;73312;-22
2023/09/09 08:31:23;;;;;;;7.30;3.50;;;;;;;20.22;54.00;99330.67;105793;1257;74428;-22
2023/09/09 08:33:52;;;;;;;13.60;8.80;;;;;;;20.28;53.00;99332.16;105636;1257;72812;-22
2023/09/09 08:36:19;;;;;;;13.40;7.30;;;;;;;20.20;52.72;99331.55;105476;1254;61048;-22
2023/09/09 08:38:47;;;;;;;16.00;9.20;;;;;;;19.94;52.90;99331.08;105529;1262;62221;-22
2023/09/09 08:41:34;;;;;;;5.00;3.40;;;;;;;20.04;53.18;99335.51;105496;1260;72724;-22
2023/09/09 08:44:14;;;;;;;7.20;4.30;;;;;;;20.11;53.24;99329.23;105485;1255;73280;-22
2023/09/09 08:46:42;;;;;;;11.00;4.70;;;;;;;20.05;53.36;99331.52;105696;1266;71463;-22
2023/09/09 08:49:12;;;;;;;7.80;3.10;;;;;;;20.24;52.98;99336.90;105817;1257;60995;-22
2023/09/09 08:51:55;;;;;;;7.40;2.30;;;;;;;20.53;51.84;99329.23;105504;1254;61055;-23
2023/09/09 08:54:24;;;;;;;;;;;;;;;20.75;51.40;99332.17;105301;1261;73981;-22
2023/09/09 08:56:52;;;;;;;7.30;5.10;;;;;;;20.86;50.49;99334.02;105528;1263;74482;-22
2023/09/09 08:59:21;;;;;;;7.00;3.20;;;;;;;20.88;49.31;99334.47;105484;1257;71430;-22
2023/09/09 09:01:49;;;;;;;15.40;6.00;;;;;;;20.69;50.22;99332.31;105599;1254;61128;-22
2023/09/09 09:04:17;;;;;;;6.40;2.40;;;;;;;21.22;48.95;99336.04;105653;1260;61221;-22
2023/09/09 09:06:49;;;;;;;10.40;2.90;;;;;;;21.38;47.48;99340.17;105245;1254;73939;-22
2023/09/09 09:09:17;;;;;;;3.80;2.00;;;;;;;21.47;47.75;99341.00;105300;1260;74557;-22
2023/09/09 09:11:45;;;;;;;5.40;2.40;;;;;;;21.58;46.89;99344.81;105443;1260;71514;-22
2023/09/09 09:14:13;;;;;;;10.30;4.20;;;;;;;21.90;46.30;99345.55;105630;1255;61106;-22
2023/09/09 09:16:41;;;;;;;6.30;3.10;;;;;;;22.09;45.69;99343.66;105686;1255;61113;-22
2023/09/09 09:19:21;;;;;;;4.60;2.80;;;;;;;22.41;44.97;99346.73;105834;1258;73997;-23
2023/09/09 09:21:49;;;;;;;9.20;3.80;;;;;;;22.99;43.99;99347.13;105691;1260;74465;-22
2023/09/09 09:24:27;;;;;;;17.90;6.90;;;;;;;22.18;43.65;99349.56;105868;1257;72741;-22
2023/09/09 09:26:55;;;;;;;4.90;2.50;;;;;;;22.47;43.73;99349.52;105680;1256;61090;-23
2023/09/09 09:29:23;;;;;;;18.20;9.80;;;;;;;22.17;43.65;99349.30;105767;1257;61170;-22
2023/09/09 09:31:52;;;;;;;7.50;2.80;;;;;;;22.14;44.30;99352.41;105545;1252;72616;-23
2023/09/09 09:34:21;;;;;;;4.70;2.60;;;;;;;23.04;43.28;99347.05;105213;1262;74433;-22
2023/09/09 09:36:49;;;;;;;7.70;2.90;;;;;;;23.49;41.67;99346.90;105529;1260;72690;-22
2023/09/09 09:39:17;;;;;;;5.90;2.40;;;;;;;23.62;41.40;99342.13;105492;1257;61192;-23
2023/09/09 09:41:44;;;;;;;7.30;2.20;;;;;;;23.51;40.83;99341.50;105462;1257;61270;-22
2023/09/09 09:44:20;;;;;;;3.30;1.80;;;;;;;23.25;41.14;99338.83;105526;1257;73851;-23
2023/09/09 09:47:01;;;;;;;14.00;8.10;;;;;;;23.29;41.09;99339.05;105223;1262;74493;-22
2023/09/09 09:49:41;;;;;;;21.80;12.50;;;;;;;23.32;40.08;99346.04;105518;1257;72712;-22
2023/09/09 09:52:09;;;;;;;10.10;2.30;;;;;;;22.83;40.20;99346.41;105262;1262;61122;-23
2023/09/09 09:54:38;;;;;;;5.20;1.70;;;;;;;23.21;39.91;99347.48;105546;1257;61156;-22
2023/09/09 09:57:07;;;;;;;12.70;5.00;;;;;;;23.68;38.87;99344.02;105528;1257;73866;-22
2023/09/09 09:59:36;;;;;;;6.00;1.80;;;;;;;23.85;38.64;99347.75;105601;1257;74479;-22
2023/09/09 10:02:03;;;;;;;3.50;1.50;;;;;;;24.03;38.17;99347.73;105509;1259;72750;-22
2023/09/09 10:04:41;;;;;;;5.70;1.70;;;;;;;23.69;38.83;99348.23;105876;1257;61279;-22
2023/09/09 10:07:12;;;;;;;2.40;1.50;;;;;;;24.27;37.61;99346.49;105704;1254;61052;-22
2023/09/09 10:09:56;;;;;;;3.90;1.70;;;;;;;24.37;37.76;99347.58;105699;1260;73888;-22
2023/09/09 10:12:30;;;;;;;1.70;1.10;;;;;;;24.64;37.39;99349.31;105667;1261;74429;-22
2023/09/09 10:15:14;;;;;;;2.50;1.60;;;;;;;24.66;36.84;99347.30;105513;1255;72678;-23
2023/09/09 10:17:42;;;;;;;4.40;1.40;;;;;;;24.41;36.68;99357.60;105512;1254;60984;-22
2023/09/09 10:20:11;;;;;;;2.90;1.40;;;;;;;24.03;37.45;99355.77;105292;1254;61157;-22
2023/09/09 10:22:42;;;;;;;2.50;1.60;;;;;;;23.47;38.28;99360.64;105576;1257;72622;-22
2023/09/09 10:25:10;;;;;;;6.20;1.40;;;;;;;23.89;37.89;99362.23;105559;1257;73249;-22
2023/09/09 10:27:39;;;;;;;2.60;1.40;;;;;;;24.45;36.76;99360.87;105442;1254;71467;-22
2023/09/09 10:30:08;;;;;;;3.60;1.20;;;;;;;24.80;36.13;99362.30;105487;1257;61103;-23
2023/09/09 10:32:36;;;;;;;2.30;1.30;;;;;;;25.11;35.35;99359.70;105495;1258;61218;-23
2023/09/09 10:35:07;;;;;;;4.50;1.60;;;;;;;24.62;35.88;99365.61;105510;1254;72154;-23
2023/09/09 10:37:37;;;;;;;2.50;1.20;;;;;;;24.11;37.02;99365.98;105443;1259;74374;-23
2023/09/09 10:40:06;;;;;;;3.80;1.30;;;;;;;24.84;35.63;99365.40;105316;1262;72714;-23
2023/09/09 10:42:38;;;;;;;3.50;1.10;;;;;;;25.35;34.71;99361.87;105462;1258;61061;-23
2023/09/09 10:45:25;;;;;;;2.60;1.40;;;;;;;25.72;34.30;99359.73;105368;1253;61214;-23
2023/09/09 10:48:00;;;;;;;4.70;1.20;;;;;;;26.17;33.59;99360.98;105520;1260;73789;-23
2023/09/09 10:50:39;;;;;;;3.90;1.20;;;;;;;24.87;34.89;99361.30;105401;1259;74500;-23
2023/09/09 10:53:18;;;;;;;4.60;1.70;;;;;;;24.29;36.30;99364.77;105476;1257;72859;-23
2023/09/09 10:55:46;;;;;;;2.60;1.30;;;;;;;24.68;35.52;99361.58;105488;1260;61577;-23
2023/09/09 10:58:16;;;;;;;5.20;1.40;;;;;;;24.53;36.11;99361.95;105514;1254;61163;-23
2023/09/09 11:00:45;;;;;;;4.10;1.40;;;;;;;24.46;35.69;99363.55;105345;1254;73896;-23
2023/09/09 11:03:15;;;;;;;1.60;1.00;;;;;;;24.95;34.99;99359.78;105447;1254;74542;-23
2023/09/09 11:05:57;;;;;;;4.30;1.50;;;;;;;25.36;34.06;99359.37;105702;1258;72681;-23
2023/09/09 11:08:35;;;;;;;4.30;1.20;;;;;;;25.70;33.87;99360.77;105576;1260;61160;-22
2023/09/09 11:11:09;;;;;;;3.40;1.10;;;;;;;25.67;33.98;99361.10;105424;1254;61160;-25
2023/09/09 11:13:48;;;;;;;4.10;1.10;;;;;;;25.64;34.38;99360.48;105632;1259;71633;-23
2023/09/09 11:16:31;;;;;;;5.20;1.30;;;;;;;24.99;34.40;99357.55;105584;1260;74556;-22
2023/09/09 11:19:00;;;;;;;4.10;1.30;;;;;;;24.99;34.72;99355.95;105487;1259;71844;-22
2023/09/09 11:21:30;;;;;;;3.40;1.10;;;;;;;24.81;34.55;99357.16;105643;1254;61133;-22
2023/09/09 11:23:58;;;;;;;3.30;1.00;;;;;;;25.32;33.83;99350.36;105311;1260;61068;-22
2023/09/09 11:26:27;;;;;;;1.50;0.90;;;;;;;25.90;33.62;99351.11;105601;1253;71695;-22
2023/09/09 11:28:55;;;;;;;5.70;1.00;;;;;;;26.48;32.35;99351.23;105335;1259;73530;-22
2023/09/09 11:31:24;;;;;;;5.60;0.70;;;;;;;26.37;32.88;99342.85;105795;1254;72663;-23
2023/09/09 11:33:56;;;;;;;3.10;1.00;;;;;;;26.33;32.52;99347.16;105546;1257;61148;-23